Time;durP1;ratioP1;P1;durP2;ratioP2;P2;SDS_P1;SDS_P2;PMS_P1;PMS_P2;Temp;Humidity;BMP_temperature;BMP_pressure;BME280_temperature;BME280_humidity;BME280_pressure;Samples;Min_cycle;Max_cycle;Signal;HPM_P1;HPM_P2
2023/02/15 00:00:18;;;;;;;18.00;9.60;;;;;;;1.72;75.53;102454.04;107534;1254;110711;-62
2023/02/15 00:03:06;;;;;;;22.70;9.80;;;;;;;1.70;75.49;102459.73;107532;1254;110286;-61
2023/02/15 00:05:35;;;;;;;22.70;10.60;;;;;;;1.68;75.69;102455.73;107607;1254;97756;-61
2023/02/15 00:08:03;;;;;;;20.30;9.80;;;;;;;1.65;75.55;102453.67;107638;1254;97921;-61
2023/02/15 00:10:31;;;;;;;16.80;8.80;;;;;;;1.64;75.47;102449.29;107612;1254;110977;-63
2023/02/15 00:13:00;;;;;;;20.00;9.90;;;;;;;1.62;75.46;102454.28;107605;1254;110687;-62
2023/02/15 00:15:29;;;;;;;23.40;9.00;;;;;;;1.60;75.16;102458.21;107670;1253;108725;-64
2023/02/15 00:17:57;;;;;;;19.50;9.30;;;;;;;1.57;75.46;102455.83;107629;1254;97819;-62
2023/02/15 00:20:25;;;;;;;17.90;9.60;;;;;;;1.55;75.37;102461.34;107682;1254;97733;-60
2023/02/15 00:22:54;;;;;;;16.50;9.30;;;;;;;1.53;75.46;102456.25;107604;1254;111543;-61
2023/02/15 00:25:22;;;;;;;18.80;8.90;;;;;;;1.50;75.49;102460.92;107637;1253;109086;-61
2023/02/15 00:27:51;;;;;;;16.70;9.40;;;;;;;1.49;75.70;102460.07;107604;1257;108162;-61
2023/02/15 00:30:19;;;;;;;19.40;9.40;;;;;;;1.47;75.74;102465.77;107575;1254;97848;-62
2023/02/15 00:32:48;;;;;;;15.80;8.90;;;;;;;1.43;75.55;102469.04;107632;1256;98447;-63
2023/02/15 00:35:17;;;;;;;21.90;9.90;;;;;;;1.40;75.68;102469.29;107715;1254;112275;-62
2023/02/15 00:37:45;;;;;;;23.20;9.20;;;;;;;1.36;75.65;102465.67;107668;1253;110046;-60
2023/02/15 00:40:13;;;;;;;23.70;11.60;;;;;;;1.32;75.81;102465.40;107667;1253;108572;-61
2023/02/15 00:42:42;;;;;;;18.00;10.30;;;;;;;1.29;76.18;102462.48;107632;1255;97705;-61
2023/02/15 00:45:10;;;;;;;16.00;9.70;;;;;;;1.27;76.34;102462.34;107640;1253;97711;-62
2023/02/15 00:47:39;;;;;;;22.10;10.10;;;;;;;1.23;76.36;102463.29;107640;1252;111824;-62
2023/02/15 00:50:07;;;;;;;15.40;8.70;;;;;;;1.21;76.47;102468.65;107471;1256;108610;-62
2023/02/15 00:52:36;;;;;;;20.10;9.40;;;;;;;1.18;76.56;102469.42;107496;1254;108762;-62
2023/02/15 00:55:04;;;;;;;17.30;9.90;;;;;;;1.16;76.50;102473.34;107564;1254;97826;-61
2023/02/15 00:57:33;;;;;;;24.30;11.40;;;;;;;1.15;76.70;102472.49;107582;1254;98344;-61
2023/02/15 01:00:02;;;;;;;16.40;9.30;;;;;;;1.14;77.04;102465.43;107598;1254;111732;-61
2023/02/15 01:02:30;;;;;;;18.70;10.40;;;;;;;1.13;77.14;102469.89;107589;1254;110111;-63
2023/02/15 01:04:59;;;;;;;18.10;9.90;;;;;;;1.11;77.02;102467.27;107585;1251;108052;-63
2023/02/15 01:07:27;;;;;;;22.60;9.60;;;;;;;1.09;77.20;102466.96;107521;1251;97903;-61
2023/02/15 01:09:56;;;;;;;18.40;11.10;;;;;;;1.09;77.23;102466.08;107508;1251;98348;-61
2023/02/15 01:12:24;;;;;;;16.30;9.20;;;;;;;1.08;77.04;102470.52;107562;1254;111806;-63
2023/02/15 01:14:53;;;;;;;15.20;9.10;;;;;;;1.08;76.98;102470.35;107610;1256;109438;-61
2023/02/15 01:17:21;;;;;;;20.50;9.60;;;;;;;1.06;77.06;102469.14;107621;1251;108927;-63
2023/02/15 01:19:51;;;;;;;18.90;10.60;;;;;;;1.06;77.48;102467.92;107686;1252;97841;-62
2023/02/15 01:22:19;;;;;;;20.10;10.70;;;;;;;1.07;77.50;102470.55;107690;1251;98392;-63
2023/02/15 01:24:51;;;;;;;20.60;10.60;;;;;;;1.06;77.86;102470.38;107623;1254;112488;-61
2023/02/15 01:27:19;;;;;;;15.60;9.60;;;;;;;1.06;77.93;102469.33;107603;1256;110736;-62
2023/02/15 01:29:48;;;;;;;17.80;10.90;;;;;;;1.05;77.94;102470.39;107573;1254;108199;-62
2023/02/15 01:32:16;;;;;;;18.20;9.80;;;;;;;1.04;78.07;102465.29;107619;1254;97842;-61
2023/02/15 01:34:45;;;;;;;18.80;10.30;;;;;;;1.03;78.01;102470.09;107595;1251;97931;-62
2023/02/15 01:37:14;;;;;;;19.20;10.50;;;;;;;1.00;78.05;102468.04;107639;1254;112248;-62
2023/02/15 01:39:42;;;;;;;21.30;10.30;;;;;;;0.99;78.09;102469.13;107676;1254;110096;-61
2023/02/15 01:42:11;;;;;;;28.80;11.60;;;;;;;0.98;78.04;102472.33;107671;1252;108112;-61
2023/02/15 01:44:42;;;;;;;19.00;10.90;;;;;;;0.95;78.20;102470.79;107609;1252;97921;-61
2023/02/15 01:47:16;;;;;;;18.70;10.10;;;;;;;0.93;78.01;102470.66;107703;1254;97721;-62
2023/02/15 01:49:47;;;;;;;24.30;10.30;;;;;;;0.90;78.24;102472.47;107606;1254;110738;-62
2023/02/15 01:52:18;;;;;;;27.00;10.60;;;;;;;0.88;78.08;102472.36;107561;1254;109869;-62
2023/02/15 01:54:48;;;;;;;20.40;10.40;;;;;;;0.86;78.15;102470.25;107663;1251;108431;-63
2023/02/15 01:57:23;;;;;;;25.30;10.70;;;;;;;0.85;78.19;102470.98;107623;1253;97854;-62
2023/02/15 01:59:56;;;;;;;22.50;10.90;;;;;;;0.84;78.31;102471.90;107623;1253;97832;-62
2023/02/15 02:02:27;;;;;;;22.90;11.00;;;;;;;0.83;78.52;102471.73;107668;1256;112086;-62
2023/02/15 02:05:06;;;;;;;23.80;10.90;;;;;;;0.81;78.50;102470.73;107674;1254;110001;-62
2023/02/15 02:07:41;;;;;;;22.90;9.90;;;;;;;0.79;78.64;102471.47;107704;1251;108727;-62
2023/02/15 02:10:13;;;;;;;18.20;10.00;;;;;;;0.77;78.20;102469.58;107605;1251;97838;-61
2023/02/15 02:12:44;;;;;;;23.20;10.80;;;;;;;0.74;78.54;102468.04;107650;1255;97739;-62
2023/02/15 02:15:14;;;;;;;18.90;11.30;;;;;;;0.73;78.71;102468.56;107707;1251;111748;-62
2023/02/15 02:18:01;;;;;;;18.10;11.40;;;;;;;0.71;78.60;102463.67;107715;1255;110389;-63
2023/02/15 02:20:36;;;;;;;20.20;11.30;;;;;;;0.69;78.38;102464.42;107460;1256;109470;-62
2023/02/15 02:23:22;;;;;;;20.20;11.70;;;;;;;0.68;78.19;102463.38;107556;1254;97909;-64
2023/02/15 02:26:18;;;;;;;19.00;10.70;;;;;;;0.69;78.40;102464.07;107611;1256;98396;-61
2023/02/15 02:29:27;;;;;;;24.60;11.30;;;;;;;0.69;78.19;102465.84;107648;1253;112178;-62
2023/02/15 02:32:22;;;;;;;25.60;11.70;;;;;;;0.68;78.17;102466.21;107619;1251;109757;-61
2023/02/15 02:35:00;;;;;;;19.80;10.60;;;;;;;0.67;78.19;102467.45;107591;1256;108182;-63
2023/02/15 02:37:55;;;;;;;17.20;10.90;;;;;;;0.66;78.20;102474.39;107602;1252;97845;-62
2023/02/15 02:40:56;;;;;;;20.50;10.90;;;;;;;0.66;78.26;102477.39;107645;1254;98288;-61
2023/02/15 02:43:38;;;;;;;21.70;10.60;;;;;;;0.65;78.19;102480.58;107595;1253;112900;-61
2023/02/15 02:46:15;;;;;;;17.30;10.30;;;;;;;0.64;77.89;102484.48;107558;1251;109170;-61
2023/02/15 02:48:43;;;;;;;18.60;10.40;;;;;;;0.62;78.05;102488.41;107587;1256;107424;-61
2023/02/15 02:51:13;;;;;;;17.30;11.10;;;;;;;0.61;78.08;102488.77;107587;1256;97580;-61
2023/02/15 02:53:42;;;;;;;17.30;10.50;;;;;;;0.58;78.00;102487.40;107573;1254;97872;-61
2023/02/15 02:56:19;;;;;;;25.30;11.90;;;;;;;0.57;77.82;102490.10;107600;1254;111284;-62
2023/02/15 02:59:04;;;;;;;18.60;10.90;;;;;;;0.55;77.94;102490.29;107644;1253;110164;-62
2023/02/15 03:01:46;;;;;;;19.00;10.00;;;;;;;0.54;78.50;102493.14;107674;1251;108108;-61
2023/02/15 03:04:28;;;;;;;25.20;11.20;;;;;;;0.53;78.45;102495.10;107472;1254;97708;-61
2023/02/15 03:07:04;;;;;;;33.00;11.80;;;;;;;0.52;78.34;102492.84;107503;1254;97867;-60
2023/02/15 03:09:43;;;;;;;21.50;10.30;;;;;;;0.50;78.18;102497.81;107477;1254;112275;-60
2023/02/15 03:12:21;;;;;;;22.30;11.70;;;;;;;0.50;78.55;102494.11;107664;1251;110592;-62
2023/02/15 03:14:57;;;;;;;24.60;11.30;;;;;;;0.49;78.93;102496.24;107643;1256;108644;-62
2023/02/15 03:17:28;;;;;;;20.30;10.00;;;;;;;0.47;79.03;102492.56;107641;1251;97836;-61
2023/02/15 03:20:02;;;;;;;20.80;11.40;;;;;;;0.46;78.87;102493.11;107636;1251;97745;-62
2023/02/15 03:22:43;;;;;;;20.70;12.80;;;;;;;0.47;78.78;102494.33;107668;1256;112260;-63
2023/02/15 03:25:21;;;;;;;21.60;12.00;;;;;;;0.48;79.00;102495.73;107616;1251;110235;-62
2023/02/15 03:27:54;;;;;;;21.70;11.60;;;;;;;0.46;78.76;102494.34;107568;1254;108070;-63
2023/02/15 03:30:25;;;;;;;16.80;11.10;;;;;;;0.46;79.19;102495.40;107583;1254;97818;-62
2023/02/15 03:32:57;;;;;;;22.10;11.50;;;;;;;0.46;79.15;102493.45;107487;1257;97797;-63
2023/02/15 03:35:43;;;;;;;23.00;11.40;;;;;;;0.47;79.28;102490.45;107618;1253;110894;-62
2023/02/15 03:38:17;;;;;;;23.20;12.70;;;;;;;0.47;79.23;102489.73;107662;1255;109884;-63
2023/02/15 03:43:55;;;;;;;23.20;11.90;;;;;;;0.49;79.59;102494.66;107592;1253;97910;-61
2023/02/15 03:46:33;;;;;;;24.40;11.20;;;;;;;0.50;79.63;102500.11;107601;1253;98392;-62
2023/02/15 03:49:21;;;;;;;24.60;12.10;;;;;;;0.50;79.65;102495.33;107613;1253;111272;-62
2023/02/15 03:51:53;;;;;;;19.10;11.20;;;;;;;0.51;79.57;102499.03;107608;1254;110018;-62
2023/02/15 03:54:42;;;;;;;26.60;13.10;;;;;;;0.50;79.52;102497.98;107619;1253;108215;-64
2023/02/15 04:03:10;;;;;;;24.60;12.10;;;;;;;0.52;79.85;102503.25;107601;1252;113053;-62
2023/02/15 04:05:40;;;;;;;29.80;13.00;;;;;;;0.53;79.88;102506.23;107628;1253;109208;-62
2023/02/15 04:08:09;;;;;;;30.00;13.20;;;;;;;0.53;79.75;102503.58;107636;1255;108757;-61
2023/02/15 04:10:53;;;;;;;26.20;13.40;;;;;;;0.53;80.05;102507.81;107565;1252;97928;-61
2023/02/15 04:13:29;;;;;;;26.00;13.70;;;;;;;0.53;80.08;102505.52;107650;1253;98036;-61
2023/02/15 04:16:03;;;;;;;27.90;12.60;;;;;;;0.53;80.29;102508.88;107626;1253;111416;-62
2023/02/15 04:27:05;;;;;;;21.60;11.90;;;;;;;0.51;79.99;102511.02;107606;1253;98354;-62
2023/02/15 04:29:33;;;;;;;32.30;14.60;;;;;;;0.52;80.18;102512.79;107592;1252;112107;-61
2023/02/15 04:32:02;;;;;;;22.20;11.50;;;;;;;0.51;80.52;102514.20;107645;1254;109058;-60
2023/02/15 04:34:30;;;;;;;21.10;13.00;;;;;;;0.53;80.56;102515.05;107609;1252;107797;-62
2023/02/15 04:36:59;;;;;;;44.40;20.70;;;;;;;0.54;80.59;102518.39;107590;1253;97692;-61
2023/02/15 04:39:27;;;;;;;32.90;15.10;;;;;;;0.56;80.89;102521.36;107641;1254;97743;-63
2023/02/15 04:41:55;;;;;;;29.20;14.40;;;;;;;0.56;80.68;102524.19;107599;1251;111746;-62
2023/02/15 04:44:24;;;;;;;23.60;13.00;;;;;;;0.56;80.37;102523.65;107584;1253;109024;-60
2023/02/15 04:46:52;;;;;;;23.20;12.20;;;;;;;0.55;80.49;102525.42;107636;1253;109422;-62
2023/02/15 04:49:21;;;;;;;22.50;12.70;;;;;;;0.56;80.43;102526.12;107616;1251;97947;-62
2023/02/15 04:51:50;;;;;;;24.90;14.40;;;;;;;0.56;80.42;102531.77;107574;1253;97736;-61
2023/02/15 04:54:18;;;;;;;26.50;13.50;;;;;;;0.55;80.16;102531.77;107591;1254;111370;-62
2023/02/15 04:56:46;;;;;;;24.70;12.10;;;;;;;0.54;80.17;102539.21;107575;1253;109708;-62
2023/02/15 04:59:15;;;;;;;25.80;13.50;;;;;;;0.53;80.24;102539.59;107666;1251;111196;-61
2023/02/15 05:01:43;;;;;;;29.60;12.10;;;;;;;0.52;80.38;102540.66;107577;1252;97879;-61
2023/02/15 05:04:12;;;;;;;25.80;13.90;;;;;;;0.52;80.31;102545.95;107652;1253;98463;-60
2023/02/15 05:06:40;;;;;;;26.30;13.00;;;;;;;0.52;80.11;102547.04;107580;1256;112219;-61
2023/02/15 05:09:13;;;;;;;26.70;12.30;;;;;;;0.52;80.25;102551.98;107657;1254;109814;-61
2023/02/15 05:11:42;;;;;;;24.80;13.60;;;;;;;0.51;79.95;102556.77;107644;1252;108772;-62
2023/02/15 05:14:10;;;;;;;23.30;12.60;;;;;;;0.49;80.01;102556.61;107599;1251;97922;-61
2023/02/15 05:16:39;;;;;;;21.60;12.20;;;;;;;0.49;79.98;102558.38;107593;1251;97922;-61
2023/02/15 05:19:07;;;;;;;29.60;13.70;;;;;;;0.48;79.94;102561.21;107632;1251;111309;-61
2023/02/15 05:21:36;;;;;;;28.80;12.30;;;;;;;0.49;80.13;102565.09;107606;1254;109676;-61
2023/02/15 05:28:19;;;;;;;29.40;14.10;;;;;;;0.49;80.03;102568.63;107567;1251;108202;-63
2023/02/15 05:29:41;;;;;;;25.20;13.60;;;;;;;0.48;80.04;102579.41;107623;1254;97749;-61
2023/02/15 05:32:13;;;;;;;26.00;11.90;;;;;;;0.48;80.00;102578.70;107627;1251;111155;-62
2023/02/15 05:34:42;;;;;;;24.60;11.80;;;;;;;0.49;80.05;102582.39;107577;1254;109245;-62
2023/02/15 05:37:10;;;;;;;21.90;12.30;;;;;;;0.50;80.11;102588.73;107590;1255;108277;-61
2023/02/15 05:39:38;;;;;;;26.80;14.00;;;;;;;0.50;80.16;102589.41;107585;1252;97828;-62
2023/02/15 05:42:07;;;;;;;36.00;13.90;;;;;;;0.52;80.17;102592.05;107612;1255;97847;-62
2023/02/15 05:44:35;;;;;;;23.90;13.00;;;;;;;0.54;80.07;102602.08;107580;1253;110280;-62
2023/02/15 05:47:06;;;;;;;23.40;12.50;;;;;;;0.57;80.14;102599.73;107591;1253;109084;-62
2023/02/15 05:49:35;;;;;;;67.30;15.50;;;;;;;0.59;79.90;102605.15;107593;1253;107827;-62
2023/02/15 05:52:04;;;;;;;33.10;14.80;;;;;;;0.60;79.84;102603.39;107602;1251;97811;-62
2023/02/15 05:54:33;;;;;;;23.40;13.00;;;;;;;0.64;80.01;102606.67;107636;1252;98363;-61
2023/02/15 05:57:01;;;;;;;24.90;12.80;;;;;;;0.68;79.78;102603.80;107562;1254;110509;-62
2023/02/15 05:59:29;;;;;;;27.20;12.40;;;;;;;0.70;79.77;102601.98;107623;1253;109106;-61
2023/02/15 06:01:58;;;;;;;22.90;13.40;;;;;;;0.74;79.85;102603.34;107568;1253;108131;-61
2023/02/15 06:04:26;;;;;;;25.20;13.30;;;;;;;0.77;79.80;102597.79;107575;1253;97864;-61
2023/02/15 06:06:55;;;;;;;24.40;12.80;;;;;;;0.81;79.89;102592.95;107579;1254;97749;-62
2023/02/15 06:09:23;;;;;;;31.60;14.60;;;;;;;0.85;79.56;102592.17;107619;1254;112197;-61
2023/02/15 06:11:51;;;;;;;22.80;12.30;;;;;;;0.90;79.47;102585.02;107676;1254;109698;-62
2023/02/15 06:14:20;;;;;;;25.90;11.80;;;;;;;0.95;79.39;102586.69;107580;1253;108837;-61
2023/02/15 06:16:49;;;;;;;24.90;12.50;;;;;;;1.02;79.37;102582.67;107556;1252;97922;-62
2023/02/15 06:19:17;;;;;;;23.60;12.70;;;;;;;1.08;79.24;102580.42;107640;1255;97768;-60
2023/02/15 06:21:45;;;;;;;21.80;12.30;;;;;;;1.18;79.04;102584.48;107683;1253;111146;-61
2023/02/15 06:24:13;;;;;;;27.70;14.10;;;;;;;1.21;78.71;102584.60;107648;1254;110509;-61
2023/02/15 06:26:41;;;;;;;25.50;12.50;;;;;;;1.22;78.53;102585.27;107615;1251;107245;-61
2023/02/15 06:29:10;;;;;;;26.00;13.70;;;;;;;1.26;78.50;102584.14;107591;1254;98006;-61
2023/02/15 06:31:38;;;;;;;29.00;13.50;;;;;;;1.28;78.11;102586.41;107652;1251;97736;-61
2023/02/15 06:34:07;;;;;;;28.50;13.50;;;;;;;1.30;78.22;102589.02;107680;1254;111732;-61
2023/02/15 06:36:36;;;;;;;31.20;12.80;;;;;;;1.31;77.80;102584.39;107618;1255;109815;-62
2023/02/15 06:39:04;;;;;;;23.60;13.60;;;;;;;1.34;77.72;102588.77;107592;1254;108684;-62
2023/02/15 06:41:33;;;;;;;27.10;13.30;;;;;;;1.37;77.72;102590.65;107548;1254;97822;-62
2023/02/15 06:44:01;;;;;;;30.50;13.70;;;;;;;1.40;77.69;102586.52;107580;1251;98443;-61
2023/02/15 06:46:30;;;;;;;29.20;13.10;;;;;;;1.43;77.66;102591.40;107565;1256;111943;-61
2023/02/15 06:48:58;;;;;;;26.70;14.00;;;;;;;1.43;77.66;102587.85;107470;1254;110534;-63
2023/02/15 06:51:27;;;;;;;27.10;13.80;;;;;;;1.45;77.59;102588.70;107607;1251;108869;-61
2023/02/15 06:53:55;;;;;;;26.20;12.80;;;;;;;1.49;77.42;102588.61;107608;1252;97813;-62
2023/02/15 06:56:24;;;;;;;22.80;12.40;;;;;;;1.55;77.34;102583.53;107642;1253;97714;-63
2023/02/15 06:58:52;;;;;;;27.10;12.70;;;;;;;1.64;77.02;102585.13;107648;1253;111270;-61
2023/02/15 07:01:21;;;;;;;27.10;12.00;;;;;;;1.70;76.84;102581.79;107634;1254;109633;-62
2023/02/15 07:03:49;;;;;;;23.10;11.80;;;;;;;1.78;76.66;102582.33;107607;1254;108350;-63
2023/02/15 07:06:18;;;;;;;28.10;12.60;;;;;;;1.83;76.55;102581.15;107585;1252;97842;-63
2023/02/15 07:08:46;;;;;;;21.00;12.00;;;;;;;1.87;76.21;102570.80;107585;1252;97717;-61
2023/02/15 07:14:02;;;;;;;23.70;12.10;;;;;;;1.98;75.75;102578.16;107625;1255;110527;-62
2023/02/15 07:16:30;;;;;;;25.30;12.10;;;;;;;2.03;75.51;102575.55;107603;1253;108725;-60
2023/02/15 07:18:58;;;;;;;29.70;12.90;;;;;;;2.09;75.33;102574.53;107319;1251;97828;-61
2023/02/15 07:21:27;;;;;;;23.80;12.30;;;;;;;2.15;75.10;102574.04;107491;1254;97954;-61
2023/02/15 07:23:58;;;;;;;19.40;9.80;;;;;;;2.21;74.78;102571.59;107498;1254;111882;-62
2023/02/15 07:26:26;;;;;;;24.00;12.40;;;;;;;2.25;74.17;102574.33;107443;1251;110289;-61
2023/02/15 07:28:54;;;;;;;24.70;11.80;;;;;;;2.27;74.30;102578.35;107233;1252;108317;-62
2023/02/15 07:31:23;;;;;;;22.70;11.30;;;;;;;2.30;73.78;102577.23;107440;1252;97839;-62
2023/02/15 07:33:51;;;;;;;28.60;12.40;;;;;;;2.35;73.57;102579.73;107526;1251;98378;-63
2023/02/15 07:36:20;;;;;;;27.20;12.10;;;;;;;2.40;73.28;102578.22;107386;1254;111322;-63
2023/02/15 07:38:48;;;;;;;20.70;11.60;;;;;;;2.45;73.44;102578.42;107460;1254;109915;-62
2023/02/15 07:41:17;;;;;;;25.30;11.90;;;;;;;2.53;72.78;102573.98;107479;1253;108430;-60
2023/02/15 07:43:45;;;;;;;24.00;12.50;;;;;;;2.62;72.56;102576.24;107611;1254;97807;-63
2023/02/15 07:46:16;;;;;;;19.90;11.40;;;;;;;2.73;72.32;102575.58;107622;1254;97713;-62
2023/02/15 07:48:44;;;;;;;24.70;11.00;;;;;;;2.86;71.42;102571.52;107645;1255;111358;-61
2023/02/15 07:51:14;;;;;;;17.10;10.20;;;;;;;2.98;70.80;102574.92;107642;1254;110310;-61
2023/02/15 07:53:43;;;;;;;20.60;9.80;;;;;;;3.14;70.37;102571.64;107608;1253;108648;-62
2023/02/15 07:56:12;;;;;;;17.80;8.90;;;;;;;3.34;69.79;102571.97;107601;1254;97824;-62
2023/02/15 07:58:57;;;;;;;21.30;9.30;;;;;;;3.52;68.65;102570.89;107630;1254;98411;-62
2023/02/15 08:01:32;;;;;;;16.00;8.20;;;;;;;3.68;67.98;102574.14;107624;1254;111680;-62
2023/02/15 08:04:00;;;;;;;;;;;;;;;3.81;66.65;102573.39;107671;1254;110173;-62
2023/02/15 08:06:33;;;;;;;19.40;8.50;;;;;;;3.89;66.04;102576.16;107593;1254;108481;-61
2023/02/15 08:09:06;;;;;;;16.70;8.50;;;;;;;4.02;65.64;102577.70;107603;1254;97876;-63
2023/02/15 08:11:39;;;;;;;15.60;9.20;;;;;;;4.15;64.74;102585.09;107620;1254;97833;-61
2023/02/15 08:14:27;;;;;;;15.70;6.70;;;;;;;4.24;63.82;102583.39;107683;1253;111343;-63
2023/02/15 08:17:02;;;;;;;17.30;7.80;;;;;;;4.32;62.73;102585.79;107682;1252;109956;-61
2023/02/15 08:19:32;;;;;;;12.90;9.10;;;;;;;4.35;62.58;102588.73;107630;1252;108106;-61
2023/02/15 08:22:03;;;;;;;18.90;8.30;;;;;;;4.45;63.09;102596.57;107698;1256;97847;-61
2023/02/15 08:24:36;;;;;;;17.30;8.80;;;;;;;4.63;63.03;102594.71;107627;1252;98511;-61
2023/02/15 08:27:06;;;;;;;14.40;7.60;;;;;;;4.84;62.21;102597.71;107646;1254;110905;-61
2023/02/15 08:29:36;;;;;;;19.40;7.70;;;;;;;4.97;61.44;102594.94;107574;1254;109211;-61
2023/02/15 08:32:11;;;;;;;15.10;8.00;;;;;;;5.10;60.72;102592.90;107565;1252;108650;-62
2023/02/15 08:34:41;;;;;;;13.50;7.70;;;;;;;5.08;60.55;102595.63;107632;1254;97704;-61
2023/02/15 08:37:10;;;;;;;13.50;7.30;;;;;;;5.15;59.82;102593.06;107722;1252;97888;-65
2023/02/15 08:39:38;;;;;;;20.20;9.70;;;;;;;5.12;59.82;102592.98;107666;1255;110813;-62
2023/02/15 08:42:07;;;;;;;22.10;7.60;;;;;;;5.14;59.70;102595.60;107626;1254;108257;-62
2023/02/15 08:44:35;;;;;;;20.10;8.80;;;;;;;5.13;58.82;102593.48;107611;1254;108064;-62
2023/02/15 08:47:04;;;;;;;21.10;8.70;;;;;;;5.17;59.25;102594.59;107652;1254;97864;-62
2023/02/15 08:49:32;;;;;;;12.90;8.20;;;;;;;5.30;58.79;102596.27;107616;1254;97863;-62
2023/02/15 08:52:01;;;;;;;16.60;8.70;;;;;;;5.50;59.02;102588.02;107623;1253;111466;-62
2023/02/15 08:54:29;;;;;;;11.70;7.70;;;;;;;5.66;58.57;102590.83;107651;1254;108970;-61
2023/02/15 08:56:59;;;;;;;16.50;8.20;;;;;;;5.68;58.21;102582.38;107630;1254;109428;-61
2023/02/15 08:59:28;;;;;;;19.70;8.60;;;;;;;5.65;57.95;102582.84;107594;1252;97826;-61
2023/02/15 09:01:56;;;;;;;17.50;7.60;;;;;;;5.71;57.72;102581.70;107628;1253;97790;-61
2023/02/15 09:04:25;;;;;;;20.40;7.50;;;;;;;5.86;56.16;102579.52;107647;1253;112230;-63
2023/02/15 09:06:53;;;;;;;15.30;6.50;;;;;;;6.00;55.54;102576.85;107545;1254;111194;-62
2023/02/15 09:09:21;;;;;;;13.60;6.60;;;;;;;6.21;54.53;102581.20;107572;1253;107650;-63
2023/02/15 09:11:51;;;;;;;13.60;5.90;;;;;;;6.29;54.60;102587.80;107484;1254;97848;-62
2023/02/15 09:14:27;;;;;;;12.80;6.50;;;;;;;6.23;53.31;102588.93;107671;1253;98340;-64
2023/02/15 09:16:56;;;;;;;10.30;5.90;;;;;;;6.10;53.17;102589.48;107613;1253;112077;-62
2023/02/15 09:19:25;;;;;;;16.20;5.70;;;;;;;6.28;52.71;102588.05;107637;1253;110361;-62
2023/02/15 09:21:53;;;;;;;12.80;5.50;;;;;;;6.55;52.54;102593.52;107564;1254;108694;-62
2023/02/15 09:24:21;;;;;;;8.70;5.60;;;;;;;7.04;51.99;102589.25;107613;1254;97834;-62
2023/02/15 09:26:50;;;;;;;10.50;5.80;;;;;;;6.88;50.07;102585.85;107636;1253;97735;-63
2023/02/15 09:29:19;;;;;;;12.30;5.20;;;;;;;6.95;49.29;102581.79;107604;1254;111663;-61
2023/02/15 09:31:50;;;;;;;9.50;4.90;;;;;;;7.18;48.57;102576.48;107606;1252;109039;-62
2023/02/15 09:34:21;;;;;;;10.00;5.20;;;;;;;7.03;48.11;102574.48;107551;1253;108491;-61
2023/02/15 09:36:50;;;;;;;8.70;5.00;;;;;;;6.67;48.82;102577.48;107638;1255;97832;-61
2023/02/15 09:39:23;;;;;;;11.10;4.40;;;;;;;6.45;49.02;102577.70;107708;1251;97831;-61
2023/02/15 09:41:52;;;;;;;11.20;4.30;;;;;;;6.29;48.69;102578.72;107642;1253;111291;-63
2023/02/15 09:44:23;;;;;;;9.90;4.60;;;;;;;6.64;48.56;102573.84;107588;1254;109223;-62
2023/02/15 09:47:05;;;;;;;6.70;3.20;;;;;;;8.07;47.22;102562.33;107649;1251;108268;-61
2023/02/15 09:49:39;;;;;;;13.00;4.20;;;;;;;9.35;45.83;102560.21;107627;1254;97832;-63
2023/02/15 09:52:36;;;;;;;8.60;4.10;;;;;;;9.24;44.53;102559.92;107666;1251;97838;-62
2023/02/15 09:55:19;;;;;;;8.50;4.00;;;;;;;8.73;43.33;102558.67;107666;1251;110247;-62
2023/02/15 09:58:12;;;;;;;9.60;3.80;;;;;;;8.28;44.76;102558.60;107643;1254;109220;-62
2023/02/15 10:00:55;;;;;;;6.50;3.60;;;;;;;7.96;44.75;102558.23;107596;1251;107108;-61
2023/02/15 10:03:42;;;;;;;6.90;3.50;;;;;;;8.86;44.40;102555.66;107652;1254;97837;-65
2023/02/15 10:06:35;;;;;;;11.20;3.80;;;;;;;9.96;41.38;102544.48;107632;1254;97899;-63
2023/02/15 10:09:24;;;;;;;6.80;3.70;;;;;;;9.75;41.36;102544.39;107597;1251;111238;-61
2023/02/15 10:12:05;;;;;;;12.70;3.80;;;;;;;10.59;41.35;102541.67;107537;1254;110676;-62
2023/02/15 10:15:02;;;;;;;11.10;4.40;;;;;;;11.66;37.92;102534.50;107535;1254;108821;-61
2023/02/15 10:18:15;;;;;;;9.90;3.90;;;;;;;12.04;39.41;102540.00;107555;1253;97866;-62
2023/02/15 10:21:02;;;;;;;7.20;3.70;;;;;;;11.31;37.55;102542.48;107564;1254;97717;-62
2023/02/15 10:23:49;;;;;;;6.40;4.00;;;;;;;10.49;39.11;102551.98;107600;1254;111452;-62
2023/02/15 10:26:34;;;;;;;6.90;3.50;;;;;;;10.20;39.75;102560.63;107582;1254;109678;-63
2023/02/15 10:29:05;;;;;;;18.70;4.60;;;;;;;10.16;39.05;102552.98;107631;1255;107309;-61
2023/02/15 10:31:46;;;;;;;9.60;4.40;;;;;;;10.63;39.17;102554.20;107636;1252;97832;-62
2023/02/15 10:34:19;;;;;;;12.20;3.70;;;;;;;11.50;39.18;102548.81;107711;1253;98398;-62
2023/02/15 10:37:24;;;;;;;7.60;3.70;;;;;;;11.45;38.09;102545.41;107600;1254;111166;-62
2023/02/15 10:40:21;;;;;;;4.70;3.40;;;;;;;11.19;37.47;102549.55;107639;1254;109696;-63
2023/02/15 10:43:00;;;;;;;7.80;3.30;;;;;;;12.07;36.34;102542.69;107636;1253;107689;-62
2023/02/15 10:45:47;;;;;;;6.90;3.50;;;;;;;12.72;35.07;102536.98;106829;1253;995743;-62
2023/02/15 10:48:22;;;;;;;13.50;3.50;;;;;;;13.20;33.46;102537.80;107615;1254;98466;-62
2023/02/15 10:50:53;;;;;;;8.50;3.70;;;;;;;12.94;33.50;102534.39;107605;1251;111946;-61
2023/02/15 10:53:25;;;;;;;10.50;3.90;;;;;;;12.97;34.35;102529.28;107698;1254;109984;-61
2023/02/15 10:56:19;;;;;;;7.10;4.00;;;;;;;12.15;35.16;102535.83;107539;1252;107911;-62
2023/02/15 10:59:10;;;;;;;11.20;3.60;;;;;;;11.99;35.55;102532.23;107656;1256;97908;-62
2023/02/15 11:02:14;;;;;;;10.20;3.60;;;;;;;12.90;35.30;102526.40;107519;1254;97826;-60
2023/02/15 11:05:02;;;;;;;7.70;4.00;;;;;;;13.76;34.78;102525.11;107289;1253;111439;-61
2023/02/15 11:07:43;;;;;;;8.70;3.30;;;;;;;14.38;33.48;102517.55;107608;1253;109687;-61
2023/02/15 11:10:40;;;;;;;11.80;3.50;;;;;;;14.13;32.48;102518.20;107616;1255;108680;-62
2023/02/15 11:13:14;;;;;;;8.40;4.30;;;;;;;14.47;32.03;102507.16;107593;1254;97909;-62
2023/02/15 11:15:48;;;;;;;59.90;6.10;;;;;;;14.88;31.50;102499.30;107541;1254;97711;-62
2023/02/15 11:18:41;;;;;;;6.00;3.30;;;;;;;14.36;30.78;102509.62;107630;1254;111399;-62
2023/02/15 11:21:12;;;;;;;8.90;3.80;;;;;;;14.76;31.05;102515.36;107569;1256;109191;-61
2023/02/15 11:23:44;;;;;;;7.80;3.80;;;;;;;14.84;30.95;102506.27;107622;1254;107904;-61
2023/02/15 11:26:20;;;;;;;15.50;5.10;;;;;;;14.22;30.41;102505.23;107628;1253;97874;-62
2023/02/15 11:28:54;;;;;;;7.40;4.00;;;;;;;13.51;31.77;102513.41;107597;1253;97866;-61
2023/02/15 11:31:26;;;;;;;7.40;3.60;;;;;;;13.77;32.65;102513.49;107556;1254;111759;-61
2023/02/15 11:34:12;;;;;;;7.00;3.90;;;;;;;14.57;33.44;102500.25;107629;1254;110673;-61
2023/02/15 11:36:43;;;;;;;11.20;4.20;;;;;;;15.74;31.60;102492.15;107624;1252;107669;-61
2023/02/15 11:39:17;;;;;;;11.00;3.90;;;;;;;16.15;27.97;102493.50;107612;1254;97851;-62
2023/02/15 11:41:51;;;;;;;7.20;3.80;;;;;;;15.30;30.14;102507.83;107559;1251;97858;-62
2023/02/15 11:44:46;;;;;;;9.80;3.50;;;;;;;15.25;30.88;102502.26;107630;1254;110785;-61
2023/02/15 11:47:15;;;;;;;5.80;3.20;;;;;;;15.51;29.03;102500.69;107567;1254;110412;-62
2023/02/15 11:49:45;;;;;;;11.10;3.70;;;;;;;15.31;28.91;102495.30;107620;1253;108599;-62
2023/02/15 11:52:17;;;;;;;11.40;4.90;;;;;;;15.11;29.99;102492.58;107572;1254;97816;-62
2023/02/15 11:54:51;;;;;;;6.10;3.40;;;;;;;15.06;30.36;102496.63;107629;1253;97717;-61
2023/02/15 11:57:20;;;;;;;6.90;4.00;;;;;;;14.91;29.86;102493.05;107643;1254;112131;-61
2023/02/15 12:00:03;;;;;;;8.60;4.10;;;;;;;14.41;30.55;102496.79;107602;1255;110005;-62